sensor_id;sensor_type;location;lat;lon;timestamp;P1;durP1;ratioP1;P2;durP2;ratioP2
54517;SDS011;40423;53.176;6.002;2022-12-18T00:00:57;94.53;;;39.80;;
54517;SDS011;40423;53.176;6.002;2022-12-18T00:03:23;99.93;;;41.07;;
54517;SDS011;40423;53.176;6.002;2022-12-18T00:05:51;91.50;;;39.47;;
54517;SDS011;40423;53.176;6.002;2022-12-18T00:08:18;96.07;;;41.63;;
54517;SDS011;40423;53.176;6.002;2022-12-18T00:10:44;91.37;;;38.00;;
54517;SDS011;40423;53.176;6.002;2022-12-18T00:13:11;94.47;;;39.10;;
54517;SDS011;40423;53.176;6.002;2022-12-18T00:15:38;94.03;;;39.97;;
54517;SDS011;40423;53.176;6.002;2022-12-18T00:18:04;95.00;;;38.90;;
54517;SDS011;40423;53.176;6.002;2022-12-18T00:20:31;94.03;;;40.67;;
54517;SDS011;40423;53.176;6.002;2022-12-18T00:23:00;90.73;;;38.70;;
54517;SDS011;40423;53.176;6.002;2022-12-18T00:25:26;93.27;;;39.50;;
54517;SDS011;40423;53.176;6.002;2022-12-18T00:27:52;88.30;;;37.13;;
54517;SDS011;40423;53.176;6.002;2022-12-18T00:30:17;87.00;;;37.67;;
54517;SDS011;40423;53.176;6.002;2022-12-18T00:32:43;85.37;;;37.63;;
54517;SDS011;40423;53.176;6.002;2022-12-18T00:35:09;82.60;;;36.57;;
54517;SDS011;40423;53.176;6.002;2022-12-18T00:37:35;86.37;;;37.37;;
54517;SDS011;40423;53.176;6.002;2022-12-18T00:40:00;85.80;;;36.67;;
54517;SDS011;40423;53.176;6.002;2022-12-18T00:42:27;89.60;;;38.87;;
54517;SDS011;40423;53.176;6.002;2022-12-18T00:47:36;86.27;;;36.27;;
54517;SDS011;40423;53.176;6.002;2022-12-18T00:50:02;93.67;;;39.73;;
54517;SDS011;40423;53.176;6.002;2022-12-18T00:52:28;84.17;;;36.80;;
54517;SDS011;40423;53.176;6.002;2022-12-18T00:54:54;92.93;;;37.93;;
54517;SDS011;40423;53.176;6.002;2022-12-18T00:57:19;90.63;;;37.03;;
54517;SDS011;40423;53.176;6.002;2022-12-18T00:59:45;84.63;;;37.77;;
54517;SDS011;40423;53.176;6.002;2022-12-18T01:02:11;87.60;;;37.73;;
54517;SDS011;40423;53.176;6.002;2022-12-18T01:04:36;89.17;;;39.13;;
54517;SDS011;40423;53.176;6.002;2022-12-18T01:07:02;95.90;;;40.27;;
54517;SDS011;40423;53.176;6.002;2022-12-18T01:09:28;102.77;;;41.60;;
54517;SDS011;40423;53.176;6.002;2022-12-18T01:11:54;95.03;;;40.67;;
54517;SDS011;40423;53.176;6.002;2022-12-18T01:14:19;102.93;;;40.87;;
54517;SDS011;40423;53.176;6.002;2022-12-18T01:16:45;85.97;;;37.73;;
54517;SDS011;40423;53.176;6.002;2022-12-18T01:19:11;89.37;;;35.83;;
54517;SDS011;40423;53.176;6.002;2022-12-18T01:21:36;98.77;;;39.90;;
54517;SDS011;40423;53.176;6.002;2022-12-18T01:24:02;97.17;;;38.13;;
54517;SDS011;40423;53.176;6.002;2022-12-18T01:26:28;92.63;;;39.03;;
54517;SDS011;40423;53.176;6.002;2022-12-18T01:28:57;94.20;;;39.57;;
54517;SDS011;40423;53.176;6.002;2022-12-18T01:31:25;87.07;;;37.73;;
54517;SDS011;40423;53.176;6.002;2022-12-18T01:33:52;95.13;;;37.13;;
54517;SDS011;40423;53.176;6.002;2022-12-18T01:36:23;87.00;;;35.50;;
54517;SDS011;40423;53.176;6.002;2022-12-18T01:38:51;93.93;;;36.00;;
54517;SDS011;40423;53.176;6.002;2022-12-18T01:41:20;91.30;;;39.73;;
54517;SDS011;40423;53.176;6.002;2022-12-18T01:43:52;98.70;;;39.27;;
54517;SDS011;40423;53.176;6.002;2022-12-18T01:46:20;88.37;;;36.40;;
54517;SDS011;40423;53.176;6.002;2022-12-18T01:48:52;93.83;;;34.80;;
54517;SDS011;40423;53.176;6.002;2022-12-18T01:51:21;85.93;;;35.50;;
54517;SDS011;40423;53.176;6.002;2022-12-18T01:53:48;91.67;;;34.47;;
54517;SDS011;40423;53.176;6.002;2022-12-18T01:56:15;91.40;;;35.03;;
54517;SDS011;40423;53.176;6.002;2022-12-18T01:58:48;88.77;;;36.67;;
54517;SDS011;40423;53.176;6.002;2022-12-18T02:01:21;93.30;;;34.87;;
54517;SDS011;40423;53.176;6.002;2022-12-18T02:03:48;79.17;;;34.00;;
54517;SDS011;40423;53.176;6.002;2022-12-18T02:09:31;86.87;;;34.67;;
54517;SDS011;40423;53.176;6.002;2022-12-18T02:16:52;92.23;;;34.67;;
54517;SDS011;40423;53.176;6.002;2022-12-18T02:22:10;99.63;;;36.53;;
54517;SDS011;40423;53.176;6.002;2022-12-18T02:25:06;88.77;;;33.93;;
54517;SDS011;40423;53.176;6.002;2022-12-18T02:27:37;89.90;;;35.00;;
54517;SDS011;40423;53.176;6.002;2022-12-18T02:30:05;98.47;;;36.30;;
54517;SDS011;40423;53.176;6.002;2022-12-18T02:32:43;84.63;;;35.97;;
54517;SDS011;40423;53.176;6.002;2022-12-18T02:35:19;89.68;;;33.22;;
54517;SDS011;40423;53.176;6.002;2022-12-18T02:37:48;83.00;;;32.67;;
54517;SDS011;40423;53.176;6.002;2022-12-18T02:40:15;84.07;;;33.03;;
54517;SDS011;40423;53.176;6.002;2022-12-18T02:42:42;83.20;;;33.07;;
54517;SDS011;40423;53.176;6.002;2022-12-18T02:45:08;83.50;;;33.13;;
54517;SDS011;40423;53.176;6.002;2022-12-18T02:47:36;85.10;;;35.03;;
54517;SDS011;40423;53.176;6.002;2022-12-18T02:50:09;88.73;;;35.53;;
54517;SDS011;40423;53.176;6.002;2022-12-18T02:58:17;84.73;;;34.40;;
54517;SDS011;40423;53.176;6.002;2022-12-18T03:01:01;79.53;;;34.37;;
54517;SDS011;40423;53.176;6.002;2022-12-18T03:03:47;86.87;;;34.60;;
54517;SDS011;40423;53.176;6.002;2022-12-18T03:06:20;83.73;;;35.10;;
54517;SDS011;40423;53.176;6.002;2022-12-18T03:08:53;84.47;;;33.67;;
54517;SDS011;40423;53.176;6.002;2022-12-18T03:11:23;74.30;;;31.83;;
54517;SDS011;40423;53.176;6.002;2022-12-18T03:14:10;83.10;;;33.47;;
54517;SDS011;40423;53.176;6.002;2022-12-18T03:16:40;83.23;;;32.80;;
54517;SDS011;40423;53.176;6.002;2022-12-18T03:19:16;79.17;;;32.10;;
54517;SDS011;40423;53.176;6.002;2022-12-18T03:21:47;80.70;;;32.73;;
54517;SDS011;40423;53.176;6.002;2022-12-18T03:24:24;85.63;;;34.53;;
54517;SDS011;40423;53.176;6.002;2022-12-18T03:26:53;77.47;;;31.90;;
54517;SDS011;40423;53.176;6.002;2022-12-18T03:29:27;87.40;;;35.17;;
54517;SDS011;40423;53.176;6.002;2022-12-18T03:32:03;83.03;;;32.87;;
54517;SDS011;40423;53.176;6.002;2022-12-18T03:34:33;79.13;;;31.47;;
54517;SDS011;40423;53.176;6.002;2022-12-18T03:37:03;81.20;;;34.43;;
54517;SDS011;40423;53.176;6.002;2022-12-18T03:39:30;88.40;;;34.77;;
54517;SDS011;40423;53.176;6.002;2022-12-18T03:42:10;89.90;;;36.50;;
54517;SDS011;40423;53.176;6.002;2022-12-18T03:47:25;81.83;;;33.87;;
54517;SDS011;40423;53.176;6.002;2022-12-18T03:50:12;93.00;;;34.97;;
54517;SDS011;40423;53.176;6.002;2022-12-18T03:55:14;92.43;;;36.97;;
54517;SDS011;40423;53.176;6.002;2022-12-18T03:57:40;93.53;;;38.33;;
54517;SDS011;40423;53.176;6.002;2022-12-18T04:00:11;86.77;;;35.43;;
54517;SDS011;40423;53.176;6.002;2022-12-18T04:02:40;85.57;;;35.80;;
54517;SDS011;40423;53.176;6.002;2022-12-18T04:05:10;87.97;;;36.80;;
54517;SDS011;40423;53.176;6.002;2022-12-18T04:07:38;88.97;;;34.17;;
54517;SDS011;40423;53.176;6.002;2022-12-18T04:10:05;90.70;;;36.47;;
54517;SDS011;40423;53.176;6.002;2022-12-18T04:12:32;85.50;;;34.67;;
54517;SDS011;40423;53.176;6.002;2022-12-18T04:14:58;92.93;;;37.43;;
54517;SDS011;40423;53.176;6.002;2022-12-18T04:17:24;88.47;;;35.93;;
54517;SDS011;40423;53.176;6.002;2022-12-18T04:19:50;94.97;;;39.23;;
54517;SDS011;40423;53.176;6.002;2022-12-18T04:22:15;84.70;;;33.97;;
54517;SDS011;40423;53.176;6.002;2022-12-18T04:24:41;84.73;;;35.03;;
54517;SDS011;40423;53.176;6.002;2022-12-18T04:27:07;90.00;;;34.63;;
54517;SDS011;40423;53.176;6.002;2022-12-18T04:29:33;88.93;;;35.03;;
54517;SDS011;40423;53.176;6.002;2022-12-18T04:31:58;79.80;;;33.00;;
54517;SDS011;40423;53.176;6.002;2022-12-18T04:34:24;83.23;;;34.83;;
54517;SDS011;40423;53.176;6.002;2022-12-18T04:36:50;91.40;;;37.57;;
54517;SDS011;40423;53.176;6.002;2022-12-18T04:39:17;92.60;;;35.83;;
54517;SDS011;40423;53.176;6.002;2022-12-18T04:41:43;82.20;;;33.37;;
54517;SDS011;40423;53.176;6.002;2022-12-18T04:44:09;88.90;;;35.03;;
54517;SDS011;40423;53.176;6.002;2022-12-18T04:46:34;77.37;;;33.47;;
54517;SDS011;40423;53.176;6.002;2022-12-18T04:49:00;78.30;;;32.07;;
54517;SDS011;40423;53.176;6.002;2022-12-18T04:51:26;76.77;;;34.80;;
54517;SDS011;40423;53.176;6.002;2022-12-18T04:53:52;82.07;;;33.40;;
54517;SDS011;40423;53.176;6.002;2022-12-18T04:56:18;77.90;;;32.20;;
54517;SDS011;40423;53.176;6.002;2022-12-18T04:58:44;78.07;;;33.13;;
54517;SDS011;40423;53.176;6.002;2022-12-18T05:01:10;73.40;;;31.07;;
54517;SDS011;40423;53.176;6.002;2022-12-18T05:03:37;74.93;;;29.97;;
54517;SDS011;40423;53.176;6.002;2022-12-18T05:06:04;76.27;;;29.93;;
54517;SDS011;40423;53.176;6.002;2022-12-18T05:08:31;74.67;;;34.03;;
54517;SDS011;40423;53.176;6.002;2022-12-18T05:13:33;71.37;;;33.17;;
54517;SDS011;40423;53.176;6.002;2022-12-18T05:15:59;69.53;;;30.20;;
54517;SDS011;40423;53.176;6.002;2022-12-18T05:18:25;60.97;;;29.83;;
54517;SDS011;40423;53.176;6.002;2022-12-18T05:20:52;62.33;;;28.27;;
54517;SDS011;40423;53.176;6.002;2022-12-18T05:23:18;65.70;;;30.23;;
54517;SDS011;40423;53.176;6.002;2022-12-18T05:25:52;68.03;;;30.00;;
54517;SDS011;40423;53.176;6.002;2022-12-18T05:28:19;64.10;;;29.90;;
54517;SDS011;40423;53.176;6.002;2022-12-18T05:30:49;63.57;;;27.67;;
54517;SDS011;40423;53.176;6.002;2022-12-18T05:33:19;70.45;;;30.25;;
54517;SDS011;40423;53.176;6.002;2022-12-18T05:35:50;59.63;;;26.37;;
54517;SDS011;40423;53.176;6.002;2022-12-18T05:38:17;64.53;;;27.60;;
54517;SDS011;40423;53.176;6.002;2022-12-18T05:40:43;60.57;;;26.83;;
54517;SDS011;40423;53.176;6.002;2022-12-18T05:43:09;54.77;;;25.80;;
54517;SDS011;40423;53.176;6.002;2022-12-18T05:45:39;58.57;;;27.77;;
54517;SDS011;40423;53.176;6.002;2022-12-18T05:48:05;63.77;;;26.67;;
54517;SDS011;40423;53.176;6.002;2022-12-18T05:50:33;58.40;;;28.03;;
54517;SDS011;40423;53.176;6.002;2022-12-18T05:53:00;60.03;;;26.90;;
54517;SDS011;40423;53.176;6.002;2022-12-18T05:55:27;61.43;;;27.43;;
54517;SDS011;40423;53.176;6.002;2022-12-18T05:57:52;61.23;;;28.53;;
54517;SDS011;40423;53.176;6.002;2022-12-18T06:00:18;61.13;;;26.73;;
54517;SDS011;40423;53.176;6.002;2022-12-18T06:02:46;60.53;;;27.83;;
54517;SDS011;40423;53.176;6.002;2022-12-18T06:05:12;60.13;;;24.93;;
54517;SDS011;40423;53.176;6.002;2022-12-18T06:07:38;57.23;;;26.97;;
54517;SDS011;40423;53.176;6.002;2022-12-18T06:10:04;58.10;;;24.50;;
54517;SDS011;40423;53.176;6.002;2022-12-18T06:12:30;57.93;;;26.70;;
54517;SDS011;40423;53.176;6.002;2022-12-18T06:14:58;55.23;;;26.60;;
54517;SDS011;40423;53.176;6.002;2022-12-18T06:17:33;58.17;;;27.27;;
54517;SDS011;40423;53.176;6.002;2022-12-18T06:19:59;54.57;;;24.67;;
54517;SDS011;40423;53.176;6.002;2022-12-18T06:22:26;50.60;;;25.17;;
54517;SDS011;40423;53.176;6.002;2022-12-18T06:24:52;59.93;;;26.07;;
54517;SDS011;40423;53.176;6.002;2022-12-18T06:27:17;63.30;;;26.70;;
54517;SDS011;40423;53.176;6.002;2022-12-18T06:29:43;54.30;;;25.03;;
54517;SDS011;40423;53.176;6.002;2022-12-18T06:32:09;58.97;;;26.13;;
54517;SDS011;40423;53.176;6.002;2022-12-18T06:34:37;52.00;;;25.63;;
54517;SDS011;40423;53.176;6.002;2022-12-18T06:37:02;57.03;;;23.77;;
54517;SDS011;40423;53.176;6.002;2022-12-18T06:39:28;52.00;;;24.83;;
54517;SDS011;40423;53.176;6.002;2022-12-18T06:41:54;53.30;;;24.93;;
54517;SDS011;40423;53.176;6.002;2022-12-18T06:44:20;50.90;;;24.83;;
54517;SDS011;40423;53.176;6.002;2022-12-18T06:46:46;47.23;;;22.27;;
54517;SDS011;40423;53.176;6.002;2022-12-18T06:49:12;48.97;;;22.73;;
54517;SDS011;40423;53.176;6.002;2022-12-18T06:51:41;49.93;;;23.07;;
54517;SDS011;40423;53.176;6.002;2022-12-18T06:54:07;54.67;;;22.43;;
54517;SDS011;40423;53.176;6.002;2022-12-18T06:56:33;50.20;;;23.77;;
54517;SDS011;40423;53.176;6.002;2022-12-18T06:58:59;49.67;;;22.53;;
54517;SDS011;40423;53.176;6.002;2022-12-18T07:01:24;44.67;;;21.57;;
54517;SDS011;40423;53.176;6.002;2022-12-18T07:03:54;47.30;;;20.90;;
54517;SDS011;40423;53.176;6.002;2022-12-18T07:06:21;43.97;;;21.77;;
54517;SDS011;40423;53.176;6.002;2022-12-18T07:08:52;43.20;;;21.13;;
54517;SDS011;40423;53.176;6.002;2022-12-18T07:11:19;48.87;;;21.43;;
54517;SDS011;40423;53.176;6.002;2022-12-18T07:13:45;39.57;;;19.93;;
54517;SDS011;40423;53.176;6.002;2022-12-18T07:16:12;42.00;;;19.67;;
54517;SDS011;40423;53.176;6.002;2022-12-18T07:18:39;43.13;;;21.80;;
54517;SDS011;40423;53.176;6.002;2022-12-18T07:21:06;46.57;;;20.43;;
54517;SDS011;40423;53.176;6.002;2022-12-18T07:23:36;41.13;;;20.90;;
54517;SDS011;40423;53.176;6.002;2022-12-18T07:26:06;40.30;;;20.53;;
54517;SDS011;40423;53.176;6.002;2022-12-18T07:28:36;39.83;;;19.15;;
54517;SDS011;40423;53.176;6.002;2022-12-18T07:31:07;47.33;;;19.60;;
54517;SDS011;40423;53.176;6.002;2022-12-18T07:36:03;40.27;;;18.93;;
54517;SDS011;40423;53.176;6.002;2022-12-18T07:38:30;44.83;;;21.50;;
54517;SDS011;40423;53.176;6.002;2022-12-18T07:41:01;42.93;;;19.40;;
54517;SDS011;40423;53.176;6.002;2022-12-18T07:43:31;40.47;;;19.10;;
54517;SDS011;40423;53.176;6.002;2022-12-18T07:45:57;43.17;;;19.27;;
54517;SDS011;40423;53.176;6.002;2022-12-18T07:48:22;40.10;;;17.27;;
54517;SDS011;40423;53.176;6.002;2022-12-18T07:50:48;44.37;;;19.43;;
54517;SDS011;40423;53.176;6.002;2022-12-18T07:53:14;45.57;;;18.87;;
54517;SDS011;40423;53.176;6.002;2022-12-18T07:55:40;38.70;;;18.47;;
54517;SDS011;40423;53.176;6.002;2022-12-18T07:58:06;40.53;;;18.20;;
54517;SDS011;40423;53.176;6.002;2022-12-18T08:00:32;38.43;;;18.10;;
54517;SDS011;40423;53.176;6.002;2022-12-18T08:02:58;41.27;;;17.57;;
54517;SDS011;40423;53.176;6.002;2022-12-18T08:05:24;37.87;;;18.57;;
54517;SDS011;40423;53.176;6.002;2022-12-18T08:07:50;39.33;;;17.13;;
54517;SDS011;40423;53.176;6.002;2022-12-18T08:10:16;38.30;;;17.87;;
54517;SDS011;40423;53.176;6.002;2022-12-18T08:12:42;41.03;;;18.93;;
54517;SDS011;40423;53.176;6.002;2022-12-18T08:15:08;42.43;;;18.67;;
54517;SDS011;40423;53.176;6.002;2022-12-18T08:17:34;34.53;;;17.10;;
54517;SDS011;40423;53.176;6.002;2022-12-18T08:20:00;33.00;;;17.63;;
54517;SDS011;40423;53.176;6.002;2022-12-18T08:22:25;35.57;;;17.07;;
54517;SDS011;40423;53.176;6.002;2022-12-18T08:24:51;43.43;;;17.87;;
54517;SDS011;40423;53.176;6.002;2022-12-18T08:27:17;36.93;;;18.03;;
54517;SDS011;40423;53.176;6.002;2022-12-18T08:29:42;41.43;;;18.77;;
54517;SDS011;40423;53.176;6.002;2022-12-18T08:32:09;34.83;;;17.17;;
54517;SDS011;40423;53.176;6.002;2022-12-18T08:34:35;33.27;;;16.90;;
54517;SDS011;40423;53.176;6.002;2022-12-18T08:37:01;34.47;;;17.13;;
54517;SDS011;40423;53.176;6.002;2022-12-18T08:39:26;36.33;;;18.00;;
54517;SDS011;40423;53.176;6.002;2022-12-18T08:41:52;37.27;;;17.50;;
54517;SDS011;40423;53.176;6.002;2022-12-18T08:47:02;30.87;;;15.60;;
54517;SDS011;40423;53.176;6.002;2022-12-18T08:49:28;33.50;;;17.40;;
54517;SDS011;40423;53.176;6.002;2022-12-18T08:51:54;37.60;;;17.67;;
54517;SDS011;40423;53.176;6.002;2022-12-18T08:54:22;34.70;;;18.07;;
54517;SDS011;40423;53.176;6.002;2022-12-18T08:56:48;35.73;;;17.37;;
54517;SDS011;40423;53.176;6.002;2022-12-18T08:59:15;36.07;;;17.70;;
54517;SDS011;40423;53.176;6.002;2022-12-18T09:01:41;31.30;;;16.43;;
54517;SDS011;40423;53.176;6.002;2022-12-18T09:04:07;30.97;;;17.20;;
54517;SDS011;40423;53.176;6.002;2022-12-18T09:06:34;35.07;;;17.17;;
54517;SDS011;40423;53.176;6.002;2022-12-18T09:09:01;31.80;;;16.83;;
54517;SDS011;40423;53.176;6.002;2022-12-18T09:11:28;34.57;;;16.53;;
54517;SDS011;40423;53.176;6.002;2022-12-18T09:13:54;29.30;;;16.27;;
54517;SDS011;40423;53.176;6.002;2022-12-18T09:16:21;31.30;;;15.27;;
54517;SDS011;40423;53.176;6.002;2022-12-18T09:18:48;29.93;;;16.77;;
54517;SDS011;40423;53.176;6.002;2022-12-18T09:21:15;30.30;;;15.37;;
54517;SDS011;40423;53.176;6.002;2022-12-18T09:23:43;29.27;;;14.80;;
54517;SDS011;40423;53.176;6.002;2022-12-18T09:26:08;31.93;;;16.03;;
54517;SDS011;40423;53.176;6.002;2022-12-18T09:28:34;27.90;;;13.90;;
54517;SDS011;40423;53.176;6.002;2022-12-18T09:31:03;27.63;;;14.20;;
54517;SDS011;40423;53.176;6.002;2022-12-18T09:33:30;28.83;;;14.53;;
54517;SDS011;40423;53.176;6.002;2022-12-18T09:35:56;27.20;;;14.27;;
54517;SDS011;40423;53.176;6.002;2022-12-18T09:38:22;30.27;;;15.23;;
54517;SDS011;40423;53.176;6.002;2022-12-18T09:40:49;24.17;;;14.57;;
54517;SDS011;40423;53.176;6.002;2022-12-18T09:43:19;26.87;;;13.93;;
54517;SDS011;40423;53.176;6.002;2022-12-18T09:45:57;24.77;;;13.67;;
54517;SDS011;40423;53.176;6.002;2022-12-18T09:48:34;24.97;;;12.63;;
54517;SDS011;40423;53.176;6.002;2022-12-18T09:51:18;27.07;;;13.10;;
54517;SDS011;40423;53.176;6.002;2022-12-18T09:53:53;25.20;;;14.40;;
54517;SDS011;40423;53.176;6.002;2022-12-18T09:56:24;26.00;;;13.77;;
54517;SDS011;40423;53.176;6.002;2022-12-18T09:58:55;22.10;;;12.37;;
54517;SDS011;40423;53.176;6.002;2022-12-18T10:01:24;20.63;;;11.50;;
54517;SDS011;40423;53.176;6.002;2022-12-18T10:03:52;22.87;;;12.23;;
54517;SDS011;40423;53.176;6.002;2022-12-18T10:06:21;24.30;;;12.73;;
54517;SDS011;40423;53.176;6.002;2022-12-18T10:09:07;20.77;;;11.48;;
54517;SDS011;40423;53.176;6.002;2022-12-18T10:14:32;21.35;;;13.10;;
54517;SDS011;40423;53.176;6.002;2022-12-18T10:17:28;20.70;;;12.23;;
54517;SDS011;40423;53.176;6.002;2022-12-18T10:22:38;22.43;;;11.53;;
54517;SDS011;40423;53.176;6.002;2022-12-18T10:25:17;20.27;;;11.30;;
54517;SDS011;40423;53.176;6.002;2022-12-18T10:30:25;20.90;;;11.70;;
54517;SDS011;40423;53.176;6.002;2022-12-18T10:32:51;22.53;;;13.07;;
54517;SDS011;40423;53.176;6.002;2022-12-18T10:35:22;19.83;;;11.80;;
54517;SDS011;40423;53.176;6.002;2022-12-18T10:38:06;23.60;;;12.77;;
54517;SDS011;40423;53.176;6.002;2022-12-18T10:40:48;17.53;;;11.23;;
54517;SDS011;40423;53.176;6.002;2022-12-18T10:43:25;19.90;;;10.70;;
54517;SDS011;40423;53.176;6.002;2022-12-18T10:46:34;19.30;;;9.87;;
54517;SDS011;40423;53.176;6.002;2022-12-18T10:51:34;18.57;;;10.53;;
54517;SDS011;40423;53.176;6.002;2022-12-18T10:56:47;21.20;;;11.47;;
54517;SDS011;40423;53.176;6.002;2022-12-18T10:59:14;23.43;;;14.60;;
54517;SDS011;40423;53.176;6.002;2022-12-18T11:01:45;19.57;;;12.50;;
54517;SDS011;40423;53.176;6.002;2022-12-18T11:04:15;21.90;;;12.57;;
54517;SDS011;40423;53.176;6.002;2022-12-18T11:09:34;23.10;;;14.47;;
54517;SDS011;40423;53.176;6.002;2022-12-18T11:12:02;19.70;;;12.20;;
54517;SDS011;40423;53.176;6.002;2022-12-18T11:14:42;22.40;;;12.43;;
54517;SDS011;40423;53.176;6.002;2022-12-18T11:17:20;18.37;;;10.57;;
54517;SDS011;40423;53.176;6.002;2022-12-18T11:19:55;20.40;;;10.20;;
54517;SDS011;40423;53.176;6.002;2022-12-18T11:24:59;18.33;;;11.43;;
54517;SDS011;40423;53.176;6.002;2022-12-18T11:27:47;20.37;;;11.97;;
54517;SDS011;40423;53.176;6.002;2022-12-18T11:30:32;20.20;;;10.70;;
54517;SDS011;40423;53.176;6.002;2022-12-18T11:38:10;21.83;;;10.93;;
54517;SDS011;40423;53.176;6.002;2022-12-18T11:40:45;14.90;;;9.47;;
54517;SDS011;40423;53.176;6.002;2022-12-18T11:43:17;18.23;;;10.00;;
54517;SDS011;40423;53.176;6.002;2022-12-18T11:45:53;18.57;;;10.53;;
54517;SDS011;40423;53.176;6.002;2022-12-18T11:48:31;18.07;;;10.03;;
54517;SDS011;40423;53.176;6.002;2022-12-18T11:51:11;18.07;;;10.07;;
54517;SDS011;40423;53.176;6.002;2022-12-18T11:53:44;15.27;;;9.13;;
54517;SDS011;40423;53.176;6.002;2022-12-18T11:56:19;18.77;;;9.40;;
54517;SDS011;40423;53.176;6.002;2022-12-18T12:04:56;15.00;;;9.27;;
54517;SDS011;40423;53.176;6.002;2022-12-18T12:12:53;17.53;;;9.07;;
54517;SDS011;40423;53.176;6.002;2022-12-18T12:15:34;14.67;;;8.80;;
54517;SDS011;40423;53.176;6.002;2022-12-18T12:26:36;14.13;;;8.13;;
54517;SDS011;40423;53.176;6.002;2022-12-18T12:40:02;15.07;;;7.47;;
54517;SDS011;40423;53.176;6.002;2022-12-18T12:45:36;12.93;;;7.80;;
54517;SDS011;40423;53.176;6.002;2022-12-18T12:48:27;14.63;;;7.03;;
54517;SDS011;40423;53.176;6.002;2022-12-18T12:51:00;13.45;;;7.78;;
54517;SDS011;40423;53.176;6.002;2022-12-18T12:53:33;9.10;;;6.20;;
54517;SDS011;40423;53.176;6.002;2022-12-18T12:56:02;13.83;;;6.63;;
54517;SDS011;40423;53.176;6.002;2022-12-18T12:58:51;10.33;;;6.37;;
54517;SDS011;40423;53.176;6.002;2022-12-18T13:01:38;11.25;;;7.25;;
54517;SDS011;40423;53.176;6.002;2022-12-18T13:06:55;9.50;;;6.07;;
54517;SDS011;40423;53.176;6.002;2022-12-18T13:09:29;8.98;;;6.05;;
54517;SDS011;40423;53.176;6.002;2022-12-18T13:12:03;9.48;;;5.95;;
54517;SDS011;40423;53.176;6.002;2022-12-18T13:14:54;9.02;;;5.32;;
54517;SDS011;40423;53.176;6.002;2022-12-18T13:17:45;9.27;;;5.57;;
54517;SDS011;40423;53.176;6.002;2022-12-18T13:20:12;9.27;;;6.07;;
54517;SDS011;40423;53.176;6.002;2022-12-18T13:33:37;9.10;;;5.13;;
54517;SDS011;40423;53.176;6.002;2022-12-18T13:38:20;10.00;;;5.80;;
54517;SDS011;40423;53.176;6.002;2022-12-18T13:40:56;10.43;;;4.90;;
54517;SDS011;40423;53.176;6.002;2022-12-18T13:43:26;9.07;;;5.63;;
54517;SDS011;40423;53.176;6.002;2022-12-18T13:46:06;9.50;;;5.07;;
54517;SDS011;40423;53.176;6.002;2022-12-18T13:48:52;11.33;;;5.53;;
54517;SDS011;40423;53.176;6.002;2022-12-18T13:51:19;9.33;;;5.50;;
54517;SDS011;40423;53.176;6.002;2022-12-18T13:54:06;9.43;;;5.60;;
54517;SDS011;40423;53.176;6.002;2022-12-18T13:56:57;9.37;;;5.57;;
54517;SDS011;40423;53.176;6.002;2022-12-18T13:59:24;9.53;;;5.60;;
54517;SDS011;40423;53.176;6.002;2022-12-18T14:04:28;7.28;;;4.63;;
54517;SDS011;40423;53.176;6.002;2022-12-18T14:06:57;12.10;;;6.10;;
54517;SDS011;40423;53.176;6.002;2022-12-18T14:09:24;11.37;;;6.10;;
54517;SDS011;40423;53.176;6.002;2022-12-18T14:11:52;8.27;;;5.17;;
54517;SDS011;40423;53.176;6.002;2022-12-18T14:14:41;9.80;;;4.90;;
54517;SDS011;40423;53.176;6.002;2022-12-18T14:17:10;8.63;;;5.03;;
54517;SDS011;40423;53.176;6.002;2022-12-18T14:19:36;10.63;;;5.80;;
54517;SDS011;40423;53.176;6.002;2022-12-18T14:22:11;8.50;;;5.37;;
54517;SDS011;40423;53.176;6.002;2022-12-18T14:24:45;8.07;;;5.17;;
54517;SDS011;40423;53.176;6.002;2022-12-18T14:27:36;10.67;;;6.30;;
54517;SDS011;40423;53.176;6.002;2022-12-18T14:30:15;9.13;;;5.90;;
54517;SDS011;40423;53.176;6.002;2022-12-18T14:35:43;10.70;;;6.00;;
54517;SDS011;40423;53.176;6.002;2022-12-18T14:40:59;8.53;;;5.23;;
54517;SDS011;40423;53.176;6.002;2022-12-18T14:43:35;9.90;;;5.30;;
54517;SDS011;40423;53.176;6.002;2022-12-18T14:46:03;12.93;;;6.70;;
54517;SDS011;40423;53.176;6.002;2022-12-18T14:48:40;9.47;;;5.50;;
54517;SDS011;40423;53.176;6.002;2022-12-18T14:53:56;10.20;;;5.73;;
54517;SDS011;40423;53.176;6.002;2022-12-18T14:59:05;10.87;;;6.47;;
54517;SDS011;40423;53.176;6.002;2022-12-18T15:07:54;7.93;;;5.80;;
54517;SDS011;40423;53.176;6.002;2022-12-18T15:12:37;9.75;;;6.18;;
54517;SDS011;40423;53.176;6.002;2022-12-18T15:18:04;11.23;;;5.10;;
54517;SDS011;40423;53.176;6.002;2022-12-18T15:20:46;9.37;;;5.60;;
54517;SDS011;40423;53.176;6.002;2022-12-18T15:26:04;11.57;;;5.83;;
54517;SDS011;40423;53.176;6.002;2022-12-18T15:28:34;11.17;;;6.73;;
54517;SDS011;40423;53.176;6.002;2022-12-18T15:36:07;10.83;;;5.97;;
54517;SDS011;40423;53.176;6.002;2022-12-18T15:38:35;12.90;;;6.87;;
54517;SDS011;40423;53.176;6.002;2022-12-18T15:41:01;10.83;;;6.03;;
54517;SDS011;40423;53.176;6.002;2022-12-18T15:43:27;10.90;;;6.17;;
54517;SDS011;40423;53.176;6.002;2022-12-18T15:46:03;11.60;;;6.47;;
54517;SDS011;40423;53.176;6.002;2022-12-18T15:48:47;10.27;;;6.25;;
54517;SDS011;40423;53.176;6.002;2022-12-18T15:51:18;9.25;;;5.75;;
54517;SDS011;40423;53.176;6.002;2022-12-18T15:53:50;11.03;;;6.60;;
54517;SDS011;40423;53.176;6.002;2022-12-18T15:56:19;9.30;;;6.03;;
54517;SDS011;40423;53.176;6.002;2022-12-18T15:59:10;7.97;;;5.70;;
54517;SDS011;40423;53.176;6.002;2022-12-18T16:04:03;10.40;;;6.07;;
54517;SDS011;40423;53.176;6.002;2022-12-18T16:06:29;11.63;;;6.53;;
54517;SDS011;40423;53.176;6.002;2022-12-18T16:08:55;11.90;;;6.77;;
54517;SDS011;40423;53.176;6.002;2022-12-18T16:11:22;11.43;;;5.33;;
54517;SDS011;40423;53.176;6.002;2022-12-18T16:14:07;12.90;;;7.20;;
54517;SDS011;40423;53.176;6.002;2022-12-18T16:16:54;10.40;;;6.03;;
54517;SDS011;40423;53.176;6.002;2022-12-18T16:19:31;10.57;;;6.17;;
54517;SDS011;40423;53.176;6.002;2022-12-18T16:21:57;11.47;;;6.93;;
54517;SDS011;40423;53.176;6.002;2022-12-18T16:24:24;12.57;;;6.87;;
54517;SDS011;40423;53.176;6.002;2022-12-18T16:26:52;11.27;;;7.53;;
54517;SDS011;40423;53.176;6.002;2022-12-18T16:29:19;12.40;;;7.60;;
54517;SDS011;40423;53.176;6.002;2022-12-18T16:31:50;13.53;;;7.20;;
54517;SDS011;40423;53.176;6.002;2022-12-18T16:34:23;13.87;;;7.83;;
54517;SDS011;40423;53.176;6.002;2022-12-18T16:36:52;13.00;;;8.00;;
54517;SDS011;40423;53.176;6.002;2022-12-18T16:39:19;13.13;;;7.17;;
54517;SDS011;40423;53.176;6.002;2022-12-18T16:41:46;11.60;;;7.07;;
54517;SDS011;40423;53.176;6.002;2022-12-18T16:44:12;12.37;;;7.07;;
54517;SDS011;40423;53.176;6.002;2022-12-18T16:46:39;13.67;;;7.83;;
54517;SDS011;40423;53.176;6.002;2022-12-18T16:49:08;11.87;;;7.13;;
54517;SDS011;40423;53.176;6.002;2022-12-18T16:51:35;12.83;;;7.63;;
54517;SDS011;40423;53.176;6.002;2022-12-18T16:54:00;15.67;;;7.77;;
54517;SDS011;40423;53.176;6.002;2022-12-18T16:56:26;14.20;;;7.80;;
54517;SDS011;40423;53.176;6.002;2022-12-18T16:58:52;13.63;;;8.30;;
54517;SDS011;40423;53.176;6.002;2022-12-18T17:01:23;13.17;;;7.77;;
54517;SDS011;40423;53.176;6.002;2022-12-18T17:03:54;11.50;;;7.30;;